< < Back
Terminal Aerodrome Forecast


Current Version              Previous Versions:   1  2  3  4  5  6  7  8  9  

Terminal Aerodrome Forecast

165
FTUS44 KMOB 252225 AAB
TAFMOB
TAF AMD
KMOB 252225Z 2522/2618 24006KT P6SM VCSH FEW015 BKN035 OVC060
     FM260300 20008KT P6SM BKN010
     FM261200 25003KT 2SM BR OVC005
     FM261500 27005KT P6SM SCT250=



Latest METAR

456
SAUS80 KWBC 260100 CCA
MTRMOB
METAR KMOB 260056Z 00000KT 10SM FEW100 SCT250 21/19 A2971 RMK AO2 SLP059
T02060194


USA.gov is the U.S. government's official web portal to all federal, state and local government web resources and services.